Time;durP1;ratioP1;P1;durP2;ratioP2;P2;SDS_P1;SDS_P2;PMS_P1;PMS_P2;Temp;Humidity;BMP_temperature;BMP_pressure;BME280_temperature;BME280_humidity;BME280_pressure;Samples;Min_cycle;Max_cycle;Signal;HPM_P1;HPM_P2
2022/05/29 00:01:47;;;;;;;17.25;4.70;;;9.70;99.90;;;;;;5074720;28;20094;-82
2022/05/29 00:04:12;;;;;;;20.52;4.30;;;9.70;99.90;;;;;;5072395;28;20040;-83
2022/05/29 00:06:41;;;;;;;20.90;4.30;;;9.70;99.90;;;;;;5074676;28;20119;-82
2022/05/29 00:09:09;;;;;;;16.25;3.83;;;9.70;99.90;;;;;;5074250;28;20048;-82
2022/05/29 00:11:35;;;;;;;17.17;4.00;;;9.70;99.90;;;;;;5073523;28;20492;-82
2022/05/29 00:14:02;;;;;;;20.80;4.55;;;9.70;99.90;;;;;;5072969;28;20083;-82
2022/05/29 00:16:28;;;;;;;21.33;3.90;;;9.60;99.90;;;;;;5073296;28;20044;-82
2022/05/29 00:18:54;;;;;;;28.52;4.28;;;9.60;99.90;;;;;;5072306;28;20049;-82
2022/05/29 00:21:20;;;;;;;24.80;4.63;;;9.60;99.90;;;;;;5074358;28;20032;-82
2022/05/29 00:23:49;;;;;;;20.20;4.32;;;9.50;99.90;;;;;;5073298;28;20476;-82
2022/05/29 00:26:19;;;;;;;26.05;4.95;;;9.40;99.90;;;;;;5072251;28;20084;-82
2022/05/29 00:28:45;;;;;;;16.45;3.70;;;9.40;99.90;;;;;;5072180;28;20048;-82
2022/05/29 00:31:12;;;;;;;20.38;4.03;;;9.40;99.90;;;;;;5073998;28;20476;-82
2022/05/29 00:33:40;;;;;;;16.23;3.70;;;9.40;99.90;;;;;;5055212;28;20049;-82
2022/05/29 00:36:12;;;;;;;18.08;3.25;;;9.30;99.90;;;;;;5074014;28;20488;-82
2022/05/29 00:38:40;;;;;;;16.52;3.63;;;9.30;99.90;;;;;;5055281;28;20110;-82
2022/05/29 00:41:19;;;;;;;16.05;3.65;;;9.20;99.90;;;;;;5074032;28;20078;-82
2022/05/29 00:44:16;;;;;;;10.88;3.10;;;9.20;99.90;;;;;;5074029;28;20411;-82
2022/05/29 00:46:51;;;;;;;20.55;3.42;;;9.10;99.90;;;;;;5071990;28;20048;-82
2022/05/29 00:49:19;;;;;;;23.02;4.05;;;9.10;99.90;;;;;;5072554;28;20048;-82
2022/05/29 00:52:07;;;;;;;16.38;3.63;;;9.10;99.90;;;;;;5072488;28;20037;-82
2022/05/29 00:54:42;;;;;;;19.23;4.40;;;9.10;99.90;;;;;;5072009;28;20052;-82
2022/05/29 00:57:11;;;;;;;15.50;3.55;;;9.00;99.90;;;;;;5055845;28;20052;-82
2022/05/29 00:59:37;;;;;;;10.85;3.08;;;9.00;99.90;;;;;;5072538;28;20123;-86
2022/05/29 01:02:04;;;;;;;14.30;3.13;;;9.00;99.90;;;;;;5071707;28;20083;-82
2022/05/29 01:04:39;;;;;;;16.77;4.28;;;9.00;99.90;;;;;;5089137;28;20052;-82
2022/05/29 01:07:08;;;;;;;23.40;4.60;;;9.10;99.90;;;;;;5071270;28;20482;-81
2022/05/29 01:09:39;;;;;;;15.27;3.17;;;9.10;99.90;;;;;;5073702;28;20076;-81
2022/05/29 01:12:26;;;;;;;17.45;3.47;;;9.20;99.90;;;;;;5073511;28;20047;-81
2022/05/29 01:15:08;;;;;;;17.75;3.80;;;9.20;99.90;;;;;;5071497;28;20044;-82
2022/05/29 01:18:12;;;;;;;20.65;4.18;;;9.20;99.90;;;;;;5072189;28;20052;-82
2022/05/29 01:21:19;;;;;;;18.05;3.05;;;9.20;99.90;;;;;;5072145;28;20049;-82
2022/05/29 01:24:22;;;;;;;19.65;3.28;;;9.20;99.90;;;;;;5089372;28;20083;-82
2022/05/29 01:27:00;;;;;;;20.95;3.42;;;9.20;99.90;;;;;;5072001;28;20084;-82
2022/05/29 01:29:41;;;;;;;15.38;3.53;;;9.20;99.90;;;;;;5072804;28;20136;-82
2022/05/29 01:32:15;;;;;;;28.85;4.13;;;9.20;99.90;;;;;;5072180;28;20440;-82
2022/05/29 01:34:53;;;;;;;17.25;4.30;;;9.20;99.90;;;;;;5072234;28;20052;-82
2022/05/29 01:37:41;;;;;;;15.40;4.00;;;9.20;99.90;;;;;;5072071;28;20086;-81
2022/05/29 01:40:35;;;;;;;23.30;4.32;;;9.20;99.90;;;;;;5073590;28;20044;-82
2022/05/29 01:43:15;;;;;;;17.25;3.30;;;9.20;99.90;;;;;;5075157;28;20055;-82
2022/05/29 01:46:10;;;;;;;15.57;3.45;;;9.20;99.90;;;;;;5076022;28;20055;-82
2022/05/29 01:48:55;;;;;;;25.05;4.50;;;9.20;99.90;;;;;;5075771;28;20056;-82
2022/05/29 01:51:28;;;;;;;12.90;3.67;;;9.20;99.90;;;;;;5076891;28;20055;-81
2022/05/29 01:54:21;;;;;;;10.95;2.90;;;9.20;99.90;;;;;;5077106;28;20044;-81
2022/05/29 01:56:51;;;;;;;16.92;3.53;;;9.20;99.90;;;;;;5069393;28;20085;-81
2022/05/29 01:59:42;;;;;;;20.20;3.67;;;9.20;99.90;;;;;;5076065;28;20047;-81
2022/05/29 02:02:10;;;;;;;22.20;3.47;;;9.20;99.90;;;;;;5075754;28;20044;-81
2022/05/29 02:04:45;;;;;;;16.63;4.50;;;9.20;99.90;;;;;;5075917;28;20510;-81
2022/05/29 02:10:25;;;;;;;17.30;3.55;;;9.20;99.90;;;;;;5076926;28;20110;-81
2022/05/29 02:13:15;;;;;;;16.88;3.50;;;9.20;99.90;;;;;;5074045;28;20147;-82
2022/05/29 02:16:09;;;;;;;16.08;3.10;;;9.20;99.90;;;;;;5076761;28;20063;-81
2022/05/29 02:18:41;;;;;;;16.25;3.30;;;9.30;99.90;;;;;;5075722;28;20037;-82
2022/05/29 02:21:13;;;;;;;18.83;3.53;;;9.40;99.90;;;;;;5076571;28;20075;-82
2022/05/29 02:23:43;;;;;;;12.63;3.03;;;9.40;99.90;;;;;;5075151;28;20050;-82
2022/05/29 02:26:16;;;;;;;15.10;3.00;;;9.50;99.90;;;;;;5074706;28;20088;-81
2022/05/29 02:28:46;;;;;;;15.85;2.75;;;9.40;99.90;;;;;;5075219;28;20052;-81
2022/05/29 02:31:26;;;;;;;12.90;3.10;;;9.50;99.90;;;;;;5075623;28;20400;-81
2022/05/29 02:34:19;;;;;;;13.77;3.28;;;9.50;99.90;;;;;;5075312;28;20047;-81
2022/05/29 02:36:50;;;;;;;12.10;3.10;;;9.50;99.90;;;;;;5074999;28;20139;-81
2022/05/29 02:39:29;;;;;;;10.93;2.53;;;9.60;99.90;;;;;;5075374;28;20044;-81
2022/05/29 02:42:32;;;;;;;17.35;2.70;;;9.60;99.90;;;;;;5076354;28;20123;-81
2022/05/29 02:45:24;;;;;;;13.80;3.13;;;9.60;99.90;;;;;;5074823;28;20048;-81
2022/05/29 02:48:12;;;;;;;12.93;2.75;;;9.60;99.90;;;;;;5074845;28;20056;-80
2022/05/29 02:51:01;;;;;;;13.48;2.92;;;9.60;99.90;;;;;;5076179;28;20119;-80
2022/05/29 02:53:27;;;;;;;10.52;2.67;;;9.60;99.90;;;;;;5073653;28;20036;-81
2022/05/29 02:55:53;;;;;;;11.63;2.40;;;9.60;99.90;;;;;;5057905;28;20542;-81
2022/05/29 02:58:23;;;;;;;16.40;2.85;;;9.60;99.90;;;;;;5074954;28;20036;-81
2022/05/29 03:00:55;;;;;;;13.27;2.95;;;9.70;99.90;;;;;;5075077;28;20120;-81
2022/05/29 03:03:33;;;;;;;15.30;3.28;;;9.70;99.90;;;;;;5074814;28;20102;-81
2022/05/29 03:06:17;;;;;;;12.90;2.58;;;9.70;99.90;;;;;;5075901;28;20040;-81
2022/05/29 03:09:20;;;;;;;10.02;2.10;;;9.80;99.90;;;;;;5090623;28;20095;-81
2022/05/29 03:11:47;;;;;;;9.15;2.08;;;9.80;99.90;;;;;;5081514;28;20071;-80
2022/05/29 03:14:37;;;;;;;9.75;2.95;;;9.80;99.90;;;;;;5073743;28;20083;-80
2022/05/29 03:17:25;;;;;;;9.05;2.40;;;9.90;99.90;;;;;;5075560;28;20052;-80
2022/05/29 03:19:56;;;;;;;8.85;2.33;;;9.90;99.90;;;;;;5075630;28;20045;-80
2022/05/29 03:23:06;;;;;;;8.88;2.15;;;9.90;99.90;;;;;;5073316;28;20056;-81
2022/05/29 03:25:46;;;;;;;9.63;2.30;;;9.90;99.90;;;;;;5075623;28;20048;-81
2022/05/29 03:28:39;;;;;;;9.63;1.92;;;9.80;99.90;;;;;;5073118;28;20049;-81
2022/05/29 03:31:10;;;;;;;9.02;2.03;;;9.80;99.90;;;;;;5056309;28;20369;-81
2022/05/29 03:33:38;;;;;;;17.23;2.83;;;9.80;99.90;;;;;;5074329;28;20403;-81
2022/05/29 03:36:11;;;;;;;7.30;2.03;;;9.80;99.90;;;;;;5073032;28;20472;-81
2022/05/29 03:38:38;;;;;;;9.00;2.20;;;9.80;99.90;;;;;;5057360;28;20139;-81
2022/05/29 03:41:13;;;;;;;10.40;2.20;;;9.80;99.90;;;;;;5074073;28;20515;-80
2022/05/29 03:43:40;;;;;;;8.38;2.03;;;9.70;99.90;;;;;;5073018;28;20044;-80
2022/05/29 03:46:06;;;;;;;13.38;2.38;;;9.70;99.90;;;;;;5073822;28;20522;-80
2022/05/29 03:48:32;;;;;;;11.02;1.98;;;9.70;99.90;;;;;;5056304;28;20052;-80
2022/05/29 03:51:07;;;;;;;18.02;2.42;;;9.70;99.90;;;;;;5074760;28;20036;-80
2022/05/29 03:53:34;;;;;;;10.13;2.20;;;9.70;99.90;;;;;;5073429;28;20037;-80
2022/05/29 03:56:00;;;;;;;10.00;2.60;;;9.70;99.90;;;;;;5072529;28;20488;-80
2022/05/29 03:58:26;;;;;;;13.73;2.45;;;9.70;99.90;;;;;;5074827;28;20052;-80
2022/05/29 04:00:52;;;;;;;15.25;3.78;;;9.70;99.90;;;;;;5074759;28;20041;-80
2022/05/29 04:03:19;;;;;;;11.10;2.20;;;9.70;99.90;;;;;;5073723;28;20040;-80
2022/05/29 04:05:45;;;;;;;14.15;3.55;;;9.70;99.90;;;;;;5073557;28;20459;-80
2022/05/29 04:13:43;;;;;;;15.97;2.60;;;9.80;99.90;;;;;;5090117;28;20105;-80
2022/05/29 04:16:09;;;;;;;8.85;2.33;;;9.80;99.90;;;;;;5074141;28;20365;-80
2022/05/29 04:18:36;;;;;;;14.52;2.70;;;9.80;99.90;;;;;;5072289;28;20204;-80
2022/05/29 04:21:02;;;;;;;7.35;2.25;;;9.80;99.90;;;;;;5073182;28;20088;-79
2022/05/29 04:23:27;;;;;;;10.25;2.78;;;9.80;99.90;;;;;;5074314;28;20118;-80
2022/05/29 04:25:53;;;;;;;12.63;2.53;;;9.90;99.90;;;;;;5073257;28;20438;-80
2022/05/29 04:28:19;;;;;;;17.08;3.47;;;9.90;99.90;;;;;;5074184;28;20047;-80
2022/05/29 04:30:45;;;;;;;8.60;2.25;;;9.90;99.90;;;;;;5088984;28;20041;-80
2022/05/29 04:33:11;;;;;;;13.10;2.50;;;9.90;99.90;;;;;;5072815;28;20127;-80
2022/05/29 04:35:49;;;;;;;12.20;2.80;;;10.00;99.90;;;;;;5072986;28;20480;-80
2022/05/29 04:38:15;;;;;;;15.32;3.13;;;10.00;99.90;;;;;;5072331;28;20078;-80
2022/05/29 04:40:42;;;;;;;7.85;2.35;;;10.00;99.90;;;;;;5072799;28;20458;-80
2022/05/29 04:43:09;;;;;;;22.02;4.85;;;10.00;99.90;;;;;;5074107;28;20049;-80
2022/05/29 04:45:39;;;;;;;11.18;2.50;;;10.00;99.90;;;;;;5073023;28;20052;-79
2022/05/29 04:48:05;;;;;;;12.35;2.50;;;10.10;99.90;;;;;;5072742;28;20044;-80
2022/05/29 04:50:31;;;;;;;12.02;2.47;;;10.10;99.90;;;;;;5072891;28;20388;-80
2022/05/29 04:52:57;;;;;;;13.52;2.20;;;10.10;99.90;;;;;;5072942;28;20033;-79
2022/05/29 04:55:23;;;;;;;7.90;2.13;;;10.10;99.90;;;;;;5073902;28;20124;-80
2022/05/29 04:57:48;;;;;;;15.63;2.00;;;10.20;99.90;;;;;;5089337;28;20118;-82
2022/05/29 05:00:14;;;;;;;9.15;2.03;;;10.20;99.90;;;;;;5071457;28;20127;-80
2022/05/29 05:02:40;;;;;;;13.23;1.90;;;10.20;99.90;;;;;;5072602;28;20059;-79
2022/05/29 05:05:06;;;;;;;15.05;2.22;;;10.30;99.90;;;;;;5073721;28;20041;-79
2022/05/29 05:07:32;;;;;;;23.38;3.95;;;10.30;99.90;;;;;;5071370;28;20056;-79
2022/05/29 05:09:58;;;;;;;11.57;2.97;;;10.30;99.90;;;;;;5073464;28;20557;-80
2022/05/29 05:12:24;;;;;;;12.68;3.17;;;10.30;99.90;;;;;;5072504;28;20048;-79
2022/05/29 05:14:49;;;;;;;12.70;2.30;;;10.40;99.90;;;;;;5054354;28;20601;-81
2022/05/29 05:17:16;;;;;;;11.20;2.58;;;10.40;99.90;;;;;;5072392;28;20052;-80
2022/05/29 05:19:42;;;;;;;13.10;1.98;;;10.40;99.90;;;;;;5073274;28;20040;-79
2022/05/29 05:22:08;;;;;;;15.32;2.60;;;10.50;99.90;;;;;;5072434;28;20047;-79
2022/05/29 05:24:37;;;;;;;8.80;2.10;;;10.50;99.90;;;;;;5073474;28;20037;-79
2022/05/29 05:27:04;;;;;;;12.88;2.45;;;10.60;99.90;;;;;;5071313;28;20054;-79
2022/05/29 05:29:30;;;;;;;10.73;2.42;;;10.60;99.90;;;;;;5072098;28;20045;-78
2022/05/29 05:31:56;;;;;;;11.43;1.80;;;10.60;99.90;;;;;;5072123;28;20045;-83
2022/05/29 05:34:22;;;;;;;12.70;2.17;;;10.60;99.90;;;;;;5071685;28;20044;-81
2022/05/29 05:36:48;;;;;;;12.27;1.73;;;10.70;99.90;;;;;;5073250;28;20049;-78
2022/05/29 05:39:14;;;;;;;13.18;1.90;;;10.70;99.90;;;;;;5073442;28;20070;-79
2022/05/29 05:41:39;;;;;;;9.15;1.92;;;10.70;99.90;;;;;;5072368;28;20084;-79
2022/05/29 05:44:06;;;;;;;10.45;1.88;;;10.70;99.90;;;;;;5073340;28;20052;-81
2022/05/29 05:46:31;;;;;;;8.18;1.90;;;10.70;99.90;;;;;;5073147;28;20045;-79
2022/05/29 05:48:57;;;;;;;8.55;1.85;;;10.70;99.90;;;;;;5072209;28;20044;-78
2022/05/29 05:51:24;;;;;;;7.47;1.77;;;10.70;99.90;;;;;;5073283;28;20076;-82
2022/05/29 05:53:50;;;;;;;13.75;2.10;;;10.60;99.90;;;;;;5073026;28;20472;-78
2022/05/29 05:56:17;;;;;;;11.63;2.28;;;10.60;99.90;;;;;;5071090;28;20044;-78
2022/05/29 05:58:44;;;;;;;8.10;2.30;;;10.60;99.90;;;;;;5073192;28;20080;-79
2022/05/29 06:01:12;;;;;;;13.43;3.20;;;10.50;99.90;;;;;;5071892;28;20078;-84
2022/05/29 06:03:39;;;;;;;7.28;2.03;;;10.50;99.90;;;;;;5071128;28;20048;-80
2022/05/29 06:06:05;;;;;;;14.68;2.30;;;10.40;99.90;;;;;;5073154;28;20183;-80
2022/05/29 06:08:31;;;;;;;14.15;2.30;;;10.40;99.90;;;;;;5072741;28;20130;-81
2022/05/29 06:10:57;;;;;;;13.05;2.10;;;10.40;99.90;;;;;;5071173;28;20055;-83
2022/05/29 06:13:23;;;;;;;7.93;1.65;;;10.40;99.90;;;;;;5071785;28;20477;-81
2022/05/29 06:15:49;;;;;;;16.63;2.15;;;10.40;99.90;;;;;;5072034;28;20159;-79
2022/05/29 06:18:16;;;;;;;18.38;3.05;;;10.40;99.90;;;;;;5070706;28;20041;-80
2022/05/29 06:20:43;;;;;;;14.35;2.45;;;10.30;99.90;;;;;;5072962;28;20119;-79
2022/05/29 06:23:10;;;;;;;14.35;2.42;;;10.30;99.90;;;;;;5072970;28;20440;-80
2022/05/29 06:25:39;;;;;;;13.77;2.78;;;10.20;99.90;;;;;;5054145;28;20045;-79
2022/05/29 06:28:05;;;;;;;13.30;2.53;;;10.20;99.90;;;;;;5074177;28;20518;-81
2022/05/29 06:30:32;;;;;;;10.32;2.17;;;10.20;99.90;;;;;;5075716;28;20115;-81
2022/05/29 06:32:57;;;;;;;14.70;2.30;;;10.20;99.90;;;;;;5076375;28;20131;-79
2022/05/29 06:35:23;;;;;;;11.10;1.85;;;10.20;99.90;;;;;;5091887;28;20127;-80
2022/05/29 06:37:49;;;;;;;20.95;2.25;;;10.30;99.90;;;;;;5075605;28;20048;-82
2022/05/29 06:40:15;;;;;;;11.05;1.98;;;10.30;99.90;;;;;;5076284;28;20083;-78
2022/05/29 06:42:42;;;;;;;7.70;2.17;;;10.40;99.90;;;;;;5075030;28;20135;-80
2022/05/29 06:45:09;;;;;;;8.77;2.10;;;10.40;99.90;;;;;;5074388;28;20045;-81
2022/05/29 06:47:35;;;;;;;12.93;1.92;;;10.50;99.90;;;;;;5091721;28;20057;-79
2022/05/29 06:50:01;;;;;;;11.75;1.70;;;10.60;99.90;;;;;;5074779;28;20083;-81
2022/05/29 06:52:31;;;;;;;14.65;2.30;;;10.60;99.90;;;;;;5074019;28;20052;-81
2022/05/29 06:54:57;;;;;;;19.80;3.70;;;10.70;99.90;;;;;;5074681;28;20036;-79
2022/05/29 07:08:45;;;;;;;16.17;2.63;;;10.90;99.90;;;;;;5091155;28;20048;-79
2022/05/29 07:11:22;;;;;;;10.43;1.80;;;10.90;99.90;;;;;;5074353;28;20483;-80
2022/05/29 07:13:48;;;;;;;9.70;1.98;;;11.00;99.90;;;;;;5074419;28;20137;-80
2022/05/29 07:16:15;;;;;;;9.90;1.80;;;11.00;99.90;;;;;;5074449;28;20043;-78
2022/05/29 07:18:41;;;;;;;14.15;1.95;;;11.00;99.90;;;;;;5075581;28;20480;-81
2022/05/29 07:21:07;;;;;;;9.90;1.63;;;11.00;99.90;;;;;;5074854;28;20442;-82
2022/05/29 07:23:34;;;;;;;9.82;2.15;;;11.10;99.90;;;;;;5075472;28;20136;-78
2022/05/29 07:26:00;;;;;;;10.32;2.13;;;11.10;99.90;;;;;;5074351;28;20361;-80
2022/05/29 07:28:26;;;;;;;11.25;2.97;;;11.10;99.90;;;;;;5073373;28;20056;-79
2022/05/29 07:30:54;;;;;;;9.02;2.58;;;11.10;99.90;;;;;;5075361;28;20041;-80
2022/05/29 07:33:20;;;;;;;11.18;2.25;;;11.10;99.90;;;;;;5074277;28;20084;-80
2022/05/29 07:35:45;;;;;;;13.23;2.17;;;11.10;99.90;;;;;;5073330;28;20145;-80
2022/05/29 07:38:11;;;;;;;8.52;2.28;;;11.10;99.90;;;;;;5090412;28;20091;-82
2022/05/29 07:40:37;;;;;;;12.70;1.80;;;11.20;99.90;;;;;;5074783;28;20128;-80
2022/05/29 07:43:19;;;;;;;9.43;1.98;;;11.20;99.90;;;;;;5075080;28;20045;-81
2022/05/29 07:45:47;;;;;;;8.05;2.35;;;11.30;99.90;;;;;;5074873;28;20199;-81
2022/05/29 07:48:14;;;;;;;9.98;1.92;;;11.30;99.90;;;;;;5072894;28;20052;-80
2022/05/29 07:50:40;;;;;;;6.10;1.48;;;11.20;99.90;;;;;;5074799;28;20526;-80
2022/05/29 07:53:06;;;;;;;8.10;1.90;;;11.20;99.90;;;;;;5073928;28;20044;-81
2022/05/29 07:55:32;;;;;;;4.78;1.20;;;11.10;99.90;;;;;;5072866;28;20067;-81
2022/05/29 07:57:58;;;;;;;7.28;1.48;;;11.10;99.90;;;;;;5073818;28;20044;-80
2022/05/29 08:00:24;;;;;;;5.53;1.05;;;11.00;99.90;;;;;;5073695;28;20051;-82
2022/05/29 08:02:50;;;;;;;8.60;1.50;;;10.90;99.90;;;;;;5089375;28;20047;-80
2022/05/29 08:05:18;;;;;;;7.75;2.13;;;10.90;99.90;;;;;;5073316;28;20060;-79
2022/05/29 08:07:45;;;;;;;10.23;1.17;;;10.90;99.90;;;;;;5090046;28;20060;-80
2022/05/29 08:10:12;;;;;;;9.38;1.35;;;10.90;99.90;;;;;;5072367;28;20063;-80
2022/05/29 08:12:39;;;;;;;7.15;1.42;;;10.90;99.90;;;;;;5074512;28;20047;-82
2022/05/29 08:15:06;;;;;;;9.05;1.30;;;10.90;99.90;;;;;;5073099;28;20106;-82
2022/05/29 08:17:32;;;;;;;5.35;0.90;;;10.90;99.90;;;;;;5072587;28;20097;-80
2022/05/29 08:19:57;;;;;;;7.95;1.02;;;10.90;99.90;;;;;;5073072;28;20048;-82
2022/05/29 08:22:24;;;;;;;9.93;1.38;;;10.90;99.90;;;;;;5074363;28;20040;-83
2022/05/29 08:30:51;;;;;;;6.43;1.38;;;10.90;99.90;;;;;;5073428;28;20060;-82
2022/05/29 08:33:21;;;;;;;7.70;1.33;;;10.90;99.90;;;;;;5073038;28;20044;-80
2022/05/29 08:35:51;;;;;;;7.72;1.30;;;10.90;99.90;;;;;;5074197;28;20081;-80
2022/05/29 08:38:18;;;;;;;8.48;1.13;;;10.90;99.90;;;;;;5088727;28;20154;-80
2022/05/29 08:40:47;;;;;;;7.53;1.13;;;10.90;99.90;;;;;;5074067;28;20460;-80
2022/05/29 08:43:20;;;;;;;4.47;1.08;;;10.80;99.90;;;;;;5072726;28;20041;-80
2022/05/29 08:45:50;;;;;;;8.32;1.75;;;10.80;99.90;;;;;;5072089;28;20079;-80
2022/05/29 08:48:20;;;;;;;8.13;1.65;;;10.80;99.90;;;;;;5072816;28;20106;-81
2022/05/29 08:51:20;;;;;;;8.20;1.67;;;10.80;99.90;;;;;;5055065;28;20087;-81
2022/05/29 08:54:12;;;;;;;7.70;2.42;;;10.80;99.90;;;;;;5073573;28;20136;-79
2022/05/29 08:56:50;;;;;;;9.20;1.63;;;10.80;99.90;;;;;;5072510;28;20384;-80
2022/05/29 08:59:34;;;;;;;8.25;1.70;;;10.90;99.90;;;;;;5072903;28;20553;-79
2022/05/29 09:02:16;;;;;;;10.80;2.22;;;10.90;99.90;;;;;;5072416;28;20048;-80
2022/05/29 09:04:50;;;;;;;5.43;1.15;;;10.90;99.90;;;;;;5072514;28;20102;-81
2022/05/29 09:07:18;;;;;;;12.13;1.83;;;11.00;99.90;;;;;;5087812;28;20564;-82
2022/05/29 09:10:00;;;;;;;5.68;1.02;;;11.10;99.90;;;;;;5072316;28;20415;-80
2022/05/29 09:12:40;;;;;;;9.35;1.00;;;11.20;99.90;;;;;;5072887;28;20064;-79
2022/05/29 09:15:12;;;;;;;9.85;1.08;;;11.20;99.90;;;;;;5072427;28;20101;-81
2022/05/29 09:17:49;;;;;;;7.95;1.15;;;11.20;99.90;;;;;;5072495;28;20357;-82
2022/05/29 09:20:24;;;;;;;7.18;2.42;;;11.20;99.90;;;;;;5071371;28;20051;-80
2022/05/29 09:22:50;;;;;;;8.93;1.45;;;11.10;99.90;;;;;;5073621;28;20050;-80
2022/05/29 09:25:33;;;;;;;9.30;1.42;;;10.90;99.90;;;;;;5073543;28;20450;-80
2022/05/29 09:28:05;;;;;;;5.47;1.20;;;10.90;99.90;;;;;;5072458;28;20049;-80
2022/05/29 09:30:31;;;;;;;14.30;1.70;;;10.80;99.90;;;;;;5072205;28;20037;-79
2022/05/29 09:33:04;;;;;;;13.70;1.80;;;10.90;99.90;;;;;;5089198;28;20115;-80
2022/05/29 09:35:40;;;;;;;16.17;1.90;;;10.90;99.90;;;;;;5071274;28;20090;-81
2022/05/29 09:38:09;;;;;;;10.15;1.98;;;11.10;99.90;;;;;;5072450;28;20063;-80
2022/05/29 09:40:46;;;;;;;6.82;1.83;;;11.10;99.90;;;;;;5072368;28;20049;-81
2022/05/29 09:43:25;;;;;;;9.07;2.25;;;11.20;99.90;;;;;;5073181;28;20037;-80
2022/05/29 09:45:51;;;;;;;8.80;1.80;;;11.20;99.90;;;;;;5073310;28;20047;-82
2022/05/29 09:51:29;;;;;;;5.13;1.02;;;11.20;99.90;;;;;;5088718;28;20059;-79
2022/05/29 09:54:04;;;;;;;8.23;0.93;;;11.10;99.90;;;;;;5071879;28;20514;-83
2022/05/29 09:56:35;;;;;;;5.13;1.05;;;11.00;99.90;;;;;;5072521;28;20562;-78
2022/05/29 09:59:05;;;;;;;5.90;1.67;;;10.90;99.90;;;;;;5071955;28;20098;-79
2022/05/29 10:01:40;;;;;;;6.13;1.33;;;10.90;99.90;;;;;;5074217;28;20041;-80
2022/05/29 10:04:11;;;;;;;6.43;1.25;;;11.00;99.90;;;;;;5075689;28;20041;-80
2022/05/29 10:06:44;;;;;;;9.57;1.23;;;11.00;99.90;;;;;;5077030;28;20048;-81
2022/05/29 10:09:11;;;;;;;14.63;2.40;;;11.20;99.90;;;;;;5074795;28;20498;-80
2022/05/29 10:11:38;;;;;;;10.15;1.95;;;11.30;99.90;;;;;;5075669;28;20137;-80
2022/05/29 10:14:21;;;;;;;6.60;1.00;;;11.30;99.90;;;;;;5075458;28;20141;-81
2022/05/29 10:16:49;;;;;;;12.70;1.67;;;11.50;99.90;;;;;;5076097;28;20134;-80
2022/05/29 10:19:36;;;;;;;8.60;1.38;;;11.50;99.90;;;;;;5075612;28;20179;-81
2022/05/29 10:22:08;;;;;;;9.57;1.10;;;11.60;99.90;;;;;;5075481;28;20127;-80
2022/05/29 10:24:37;;;;;;;9.73;1.27;;;11.60;99.90;;;;;;5074787;28;20059;-81
2022/05/29 10:27:22;;;;;;;12.60;1.75;;;11.70;99.90;;;;;;5059080;28;20044;-80
2022/05/29 10:29:58;;;;;;;10.52;1.42;;;11.70;99.90;;;;;;5075823;28;20044;-81
2022/05/29 10:32:28;;;;;;;10.40;1.10;;;11.70;99.90;;;;;;5076468;28;20044;-81
2022/05/29 10:35:24;;;;;;;10.30;1.38;;;11.80;99.90;;;;;;5075303;28;20044;-81
2022/05/29 10:37:52;;;;;;;9.82;1.20;;;11.80;99.90;;;;;;5075258;28;20433;-79
2022/05/29 10:40:21;;;;;;;6.90;1.42;;;11.80;99.90;;;;;;5076443;28;20041;-79
2022/05/29 10:42:56;;;;;;;10.52;1.92;;;11.80;99.90;;;;;;5075288;28;20044;-79
2022/05/29 10:45:28;;;;;;;9.85;1.45;;;11.90;99.90;;;;;;5074051;28;20048;-81
2022/05/29 10:48:03;;;;;;;3.75;1.35;;;12.00;99.90;;;;;;5076234;28;20043;-80
2022/05/29 10:50:46;;;;;;;10.77;1.52;;;12.10;99.90;;;;;;5074725;28;20496;-80
2022/05/29 10:53:18;;;;;;;4.28;1.05;;;12.30;99.90;;;;;;5076094;28;20043;-80
2022/05/29 10:55:58;;;;;;;9.30;1.65;;;12.30;99.90;;;;;;5075825;28;20048;-81
2022/05/29 10:58:44;;;;;;;5.07;1.30;;;12.20;99.90;;;;;;5073854;28;20590;-80
2022/05/29 11:04:35;;;;;;;11.05;1.23;;;11.90;99.90;;;;;;5075817;28;20127;-83
2022/05/29 11:07:38;;;;;;;10.20;1.95;;;11.80;99.90;;;;;;5074438;28;20045;-78
2022/05/29 11:10:33;;;;;;;5.55;1.40;;;11.60;99.90;;;;;;5074823;28;20044;-81
2022/05/29 11:13:08;;;;;;;6.50;1.98;;;11.30;99.90;;;;;;5089959;28;20040;-80
2022/05/29 11:15:40;;;;;;;;;;;11.10;99.90;;;;;;5076245;28;20387;-81
2022/05/29 11:18:27;;;;;;;10.93;1.40;;;11.00;99.90;;;;;;5091327;28;20375;-79
2022/05/29 11:21:01;;;;;;;7.03;1.38;;;10.90;99.90;;;;;;5074928;28;20110;-82
2022/05/29 11:23:44;;;;;;;9.80;1.70;;;10.90;99.90;;;;;;5074417;28;20041;-80
2022/05/29 11:26:23;;;;;;;8.95;1.63;;;10.90;99.90;;;;;;5073717;28;20135;-81
2022/05/29 11:29:21;;;;;;;6.30;1.45;;;11.00;99.90;;;;;;5074107;28;20459;-79
2022/05/29 11:32:08;;;;;;;10.27;1.67;;;11.10;99.90;;;;;;5074110;28;20080;-80
2022/05/29 11:34:58;;;;;;;9.80;1.52;;;11.20;99.90;;;;;;5073584;28;20053;-80
2022/05/29 11:37:24;;;;;;;8.60;1.30;;;11.40;99.90;;;;;;5073900;28;20048;-81
2022/05/29 11:40:11;;;;;;;4.93;1.33;;;11.50;99.90;;;;;;5074487;28;20150;-81
2022/05/29 11:43:14;;;;;;;7.72;1.42;;;11.60;99.90;;;;;;5073960;28;20053;-80
2022/05/29 11:51:48;;;;;;;13.77;3.00;;;12.00;99.90;;;;;;5087124;28;20124;-81
2022/05/29 11:54:23;;;;;;;9.85;1.77;;;12.10;99.90;;;;;;5072570;28;20040;-82
2022/05/29 11:57:00;;;;;;;11.90;2.15;;;12.10;99.90;;;;;;5074751;28;20037;-81
2022/05/29 11:59:46;;;;;;;11.77;1.65;;;12.20;99.90;;;;;;5073602;28;20086;-81
2022/05/29 12:02:34;;;;;;;8.43;1.65;;;12.10;99.90;;;;;;5070071;28;20048;-81
2022/05/29 12:05:16;;;;;;;8.88;2.15;;;12.00;99.90;;;;;;5074772;28;20053;-81
2022/05/29 12:07:52;;;;;;;11.88;2.25;;;11.90;99.90;;;;;;5073341;28;20118;-80
2022/05/29 12:10:22;;;;;;;6.90;1.40;;;11.80;99.90;;;;;;5074184;28;20047;-80
2022/05/29 12:12:57;;;;;;;11.48;1.83;;;11.60;99.90;;;;;;5074605;28;20041;-80
2022/05/29 12:15:23;;;;;;;10.68;2.10;;;11.50;99.90;;;;;;5089314;28;20049;-80
2022/05/29 12:18:00;;;;;;;12.13;2.33;;;11.30;99.90;;;;;;5074368;28;20037;-79
2022/05/29 12:20:49;;;;;;;11.38;2.25;;;11.20;99.90;;;;;;5072996;28;20135;-78
2022/05/29 12:23:27;;;;;;;12.40;1.67;;;11.20;99.90;;;;;;5073733;28;20078;-81
2022/05/29 12:26:06;;;;;;;11.30;1.90;;;11.20;99.90;;;;;;5072108;28;20037;-79
2022/05/29 12:29:00;;;;;;;11.80;1.80;;;11.20;99.90;;;;;;5074202;28;20404;-80
2022/05/29 12:31:36;;;;;;;12.38;1.65;;;11.30;99.90;;;;;;5072989;28;20135;-79
2022/05/29 12:34:03;;;;;;;9.40;1.70;;;11.40;99.90;;;;;;5074023;28;20078;-79
2022/05/29 12:36:53;;;;;;;7.28;2.25;;;11.50;99.90;;;;;;5073150;28;20056;-82
2022/05/29 12:39:46;;;;;;;10.30;2.40;;;11.60;99.90;;;;;;5074125;28;20498;-81
2022/05/29 12:42:20;;;;;;;5.63;1.33;;;11.70;99.90;;;;;;5073860;28;20040;-79
2022/05/29 12:45:18;;;;;;;9.02;1.42;;;11.80;99.90;;;;;;5071916;28;20041;-79
2022/05/29 12:47:52;;;;;;;10.50;1.77;;;11.80;99.90;;;;;;5070684;28;20058;-79
2022/05/29 12:50:55;;;;;;;6.93;1.35;;;11.80;99.90;;;;;;5073387;28;20123;-81
2022/05/29 12:53:27;;;;;;;10.70;1.90;;;11.80;99.90;;;;;;5070655;28;20056;-80
2022/05/29 12:56:11;;;;;;;10.27;2.75;;;11.80;99.90;;;;;;5089381;28;20055;-79
2022/05/29 12:59:06;;;;;;;7.60;1.60;;;11.80;99.90;;;;;;5071867;28;20052;-80
2022/05/29 13:01:59;;;;;;;13.65;2.25;;;11.80;99.90;;;;;;5072498;28;20051;-79
2022/05/29 13:04:37;;;;;;;13.57;1.90;;;11.80;99.90;;;;;;5071928;28;20117;-81
2022/05/29 13:07:22;;;;;;;9.50;2.00;;;11.80;99.90;;;;;;5073547;28;20115;-81
2022/05/29 13:09:57;;;;;;;9.02;1.52;;;11.90;99.90;;;;;;5073621;28;20110;-80
2022/05/29 13:12:31;;;;;;;12.05;2.15;;;12.00;99.90;;;;;;5071719;28;20123;-79
2022/05/29 13:15:04;;;;;;;10.85;1.85;;;12.20;99.90;;;;;;5073375;28;20047;-80
2022/05/29 13:17:33;;;;;;;11.07;1.70;;;12.30;99.90;;;;;;5089382;28;20036;-81
2022/05/29 13:20:02;;;;;;;8.57;1.45;;;12.40;99.90;;;;;;5071751;28;20381;-80
2022/05/29 13:22:54;;;;;;;12.90;2.17;;;12.50;99.90;;;;;;5073328;28;20037;-81
2022/05/29 13:25:51;;;;;;;10.27;1.70;;;12.60;99.90;;;;;;5072739;28;20473;-80
2022/05/29 13:28:28;;;;;;;9.85;1.60;;;12.60;99.90;;;;;;5071873;28;20115;-81
2022/05/29 13:31:14;;;;;;;10.20;1.48;;;12.60;99.90;;;;;;5072248;28;20146;-81
2022/05/29 13:33:43;;;;;;;6.35;1.75;;;12.50;99.90;;;;;;5072542;28;20052;-80
2022/05/29 13:36:10;;;;;;;7.30;0.80;;;12.40;99.90;;;;;;5074781;28;20060;-82
2022/05/29 13:38:45;;;;;;;13.77;3.30;;;12.30;99.90;;;;;;5076140;28;20072;-81
2022/05/29 13:41:31;;;;;;;6.57;1.23;;;12.10;99.90;;;;;;5075440;28;20484;-82
2022/05/29 13:44:28;;;;;;;10.27;1.75;;;11.90;99.90;;;;;;5076421;28;20361;-83
2022/05/29 13:47:19;;;;;;;19.13;2.30;;;11.80;99.90;;;;;;5074233;28;20045;-82
2022/05/29 13:50:17;;;;;;;9.38;1.80;;;11.70;99.90;;;;;;5077352;28;20455;-81
2022/05/29 13:53:02;;;;;;;15.02;1.65;;;11.60;99.90;;;;;;5068002;28;20502;-81
2022/05/29 13:55:34;;;;;;;16.02;2.03;;;11.60;99.90;;;;;;5075181;28;20048;-80
2022/05/29 14:04:00;;;;;;;9.85;1.70;;;11.70;99.90;;;;;;5076944;28;20565;-80